This is the latest recevied weather packets stored in our database for station/object W2SBL-1. If no packets are shown the sender has not sent any weather packets the latest 10 day(s).
| Time | Temp. | Humidity | Pressure | Rain* | Wind** | Luminosity | Snow |
|---|---|---|---|---|---|---|---|
| 1777939043 | 16.11° C | 45% | 1010.4 hPa | - | - | - | - |
| 1777938143 | 16.11° C | 45% | 1010.2 hPa | - | - | - | - |
| 1777937243 | 16.67° C | 45% | 1010.3 hPa | - | - | - | - |
| 1777936343 | -1.67° C | 45% | 980.6 hPa | - | - | - | - |
| 1777935443 | 17.22° C | 45% | 1013.8 hPa | - | - | - | - |
| 1777934543 | 17.78° C | 45% | 1010.2 hPa | - | - | - | - |
| 1777933642 | 18.89° C | 45% | 1010.2 hPa | - | - | - | - |
| 1777932742 | 21.11° C | 42% | 1010.2 hPa | - | - | - | - |
| 1777931842 | 22.22° C | 41% | 1010.4 hPa | - | - | - | - |
| 1777930942 | 13.89° C | 41% | 997.3 hPa | - | - | - | - |
| 1777930042 | 23.33° C | 41% | 1010.5 hPa | - | - | - | - |
| 1777929142 | 23.33° C | 41% | 1010.4 hPa | - | - | - | - |
| 1777928242 | 23.33° C | 41% | 1010.5 hPa | - | - | - | - |
| 1777927342 | 23.33° C | 41% | 1017.9 hPa | - | - | - | - |
| 1777926442 | 23.89° C | 41% | 1010.3 hPa | - | - | - | - |
| 1777925542 | 25.56° C | 39% | 1010.4 hPa | - | - | - | - |
| 1777924642 | 26.11° C | 39% | 1010.6 hPa | - | - | - | - |
| 1777923742 | 26.11° C | 39% | 1010.7 hPa | - | - | - | - |
| 1777922841 | 26.67° C | 38% | 1010.9 hPa | - | - | - | - |
| 1777921941 | 25.56° C | 39% | 1010.9 hPa | - | - | - | - |
| 1777921041 | 25.56° C | 39% | 1011.1 hPa | - | - | - | - |
| 1777920141 | 26.11° C | 39% | 1011.3 hPa | - | - | - | - |
| 1777919241 | 25.56° C | 39% | 1011.3 hPa | - | - | - | - |
| 1777918341 | 25.56° C | 39% | 1011.5 hPa | - | - | - | - |
| 1777917441 | 25° C | 39% | 1011.6 hPa | - | - | - | - |
* Rain since midnight (hover to see other rain measurements)
** Current wind speed in m/s (hover to see current wind gust speed)